HTDA/DAR METAR and TAF weather

Enter ICAO airport designator
Station Type Date Time Source
HTDA METAR 2018/07/21 10:00 UTC NOAA

HTDA 211000Z 12015KT 9999 BKN015 28/21 Q1020 NOSIG


Station Type Date Time Source
HTDA Decoded METAR 2018/07/21 10:00 UTC NOAA

Dar Es Salaam Airport, Tanzania (HTDA) 06-52S 039-12E 55M
Jul 21, 2018 - 06:00 AM EDT / 2018.07.21 1000 UTC
Wind: from the ESE (120 degrees) at 17 MPH (15 KT):0
Visibility: greater than 7 mile(s):0
Sky conditions: mostly cloudy
Temperature: 82 F (28 C)
Dew Point: 69 F (21 C)
Relative Humidity: 65%
Pressure (altimeter): 30.12 in. Hg (1020 hPa)
ob: HTDA 211000Z 12015KT 9999 BKN015 28/21 Q1020 NOSIG
cycle: 10

Station Type Date Time Source
HTDA TAF 2018/07/20 18:24 UTC NOAA

TAF TAF HTDA 201700Z 2018/2124 13005KT 9999 FEW016
TEMPO 2103/2105 7000 MIFG
BECMG 2106/2109 16010KT BKN018


Example: see airport list